| |
Missouri Department of Transportation

Social Media Facebook Twitter Flickr Instagram YouTube RSS

Current METAR Information for All MoDOT Locations 
AWOS Home - General Info for all Airports
Current AWOS for all Airports - Current METAR for all Airports
Glossary - Disclaimer - Other Links


Automated Weather Observation System
Date: 05-26-2016
 
Location Current METAR Record
HANNIBAL METAR KHAE 261815Z AUTO 16003KT 10SM CLR 29/17 A2991 RMK AO2
HARRISONVILLE METAR KLRY 261827Z AUTO 15009KT 10SM BKN029 BKN038 30/21 A2989 RMK AO2 LTG DSNT NE AND W
LEBANON  No current data available
MALDEN METAR KMAW 261819Z AUTO 20011KT 10SM BKN023 27/23 A2998 RMK AO2 LTG DSNT NW THRU NE
MARSHALL METAR KMHL 261825Z AUTO 31004KT 10SM -TSRA SCT060 SCT070 OVC100 19/17 A2993 RMK AO2 LTG DSNT ALQS
MARYVILLE  No current data available
MEXICO  No current data available
MOBERLY  No current data available
NEVADA  No current data available
PIEDMONT  No current data available
SIKESTON  No current data available
SULLIVAN  No current data available
WARSAW  No current data available
About Us
How Do I...
Contact Us
Missouri Department of Transportation
Central Office
105 W. Capitol Avenue
Jefferson City, MO 65102
1-888-ASK-MODOT (275-6636)
1-866-831-6277 (Motor Carrier Services)
Driver's License Offices
horz_bar
| | |
Missouri State Government
© 2013 Missouri Department of Transportation. All Rights Reserved.   Privacy Policy.
 
 
 
 
RSS FeedYoutubeBlogFlickrTwitter Facebook